createdAt,value
2022-08-30T00:02:21.153Z,99.90
2022-08-30T00:04:48.440Z,99.90
2022-08-30T00:07:15.517Z,99.90
2022-08-30T00:09:42.632Z,99.90
2022-08-30T00:12:10.037Z,99.90
2022-08-30T00:14:37.482Z,99.90
2022-08-30T00:17:05.076Z,99.90
2022-08-30T00:19:31.976Z,99.90
2022-08-30T00:21:59.003Z,99.90
2022-08-30T00:24:26.126Z,99.90
2022-08-30T00:26:53.533Z,99.90
2022-08-30T00:29:20.641Z,99.90
2022-08-30T00:31:47.635Z,99.90
2022-08-30T00:34:16.698Z,99.90
2022-08-30T00:36:46.747Z,99.90
2022-08-30T00:39:13.906Z,99.90
2022-08-30T00:41:41.602Z,99.90
2022-08-30T00:44:08.615Z,99.90
2022-08-30T00:46:35.688Z,99.90
2022-08-30T00:49:07.613Z,99.90
2022-08-30T00:51:34.918Z,99.90
2022-08-30T00:54:03.511Z,99.90
2022-08-30T00:56:32.576Z,99.90
2022-08-30T00:59:01.844Z,99.90
2022-08-30T01:01:31.811Z,99.90
2022-08-30T01:04:02.408Z,99.90
2022-08-30T01:06:32.473Z,99.90
2022-08-30T01:09:02.549Z,99.90
2022-08-30T01:11:31.863Z,99.90
2022-08-30T01:13:59.448Z,99.90
2022-08-30T01:16:27.324Z,99.90
2022-08-30T01:18:59.578Z,99.90
2022-08-30T01:21:57.912Z,99.90
2022-08-30T01:24:25.064Z,99.90
2022-08-30T01:26:52.131Z,99.90
2022-08-30T01:29:23.173Z,99.90
2022-08-30T01:31:50.218Z,99.90
2022-08-30T01:34:17.130Z,99.90
2022-08-30T01:36:45.969Z,99.90
2022-08-30T01:39:19.046Z,99.90
2022-08-30T01:41:45.999Z,99.90
2022-08-30T01:44:14.275Z,99.90
2022-08-30T01:46:45.813Z,99.90
2022-08-30T01:49:16.459Z,99.90
2022-08-30T01:51:44.514Z,99.90
2022-08-30T01:54:11.927Z,99.90
2022-08-30T01:56:38.963Z,99.90
2022-08-30T01:59:06.095Z,99.90
2022-08-30T02:01:37.106Z,99.90
2022-08-30T02:04:04.918Z,99.90
2022-08-30T02:06:32.323Z,99.90
2022-08-30T02:08:59.490Z,99.90
2022-08-30T02:11:26.796Z,99.90
2022-08-30T02:13:53.801Z,99.90
2022-08-30T02:16:23.786Z,99.90
2022-08-30T02:18:56.325Z,99.90
2022-08-30T02:21:24.994Z,99.90
2022-08-30T02:23:52.514Z,99.90
2022-08-30T02:26:19.877Z,99.90
2022-08-30T02:28:50.035Z,99.90
2022-08-30T02:31:20.887Z,99.90
2022-08-30T02:33:50.543Z,99.90
2022-08-30T02:36:18.470Z,99.90
2022-08-30T02:38:46.255Z,99.90
2022-08-30T02:41:14.079Z,99.90
2022-08-30T02:43:41.105Z,99.90
2022-08-30T02:46:08.334Z,99.90
2022-08-30T02:48:35.439Z,99.90
2022-08-30T02:51:10.550Z,99.90
2022-08-30T02:53:39.576Z,99.90
2022-08-30T02:56:06.865Z,99.90
2022-08-30T02:58:33.811Z,99.90
2022-08-30T03:01:01.792Z,99.90
2022-08-30T03:03:28.919Z,99.90
2022-08-30T03:05:55.799Z,99.90
2022-08-30T03:08:22.905Z,99.90
2022-08-30T03:10:50.166Z,99.90
2022-08-30T03:13:17.296Z,99.90
2022-08-30T03:15:44.377Z,99.90
2022-08-30T03:18:11.433Z,99.90
2022-08-30T03:20:38.868Z,99.90
2022-08-30T03:23:05.731Z,99.90
2022-08-30T03:25:34.059Z,99.90
2022-08-30T03:28:01.162Z,99.90
2022-08-30T03:30:28.388Z,99.90
2022-08-30T03:32:55.428Z,99.90
2022-08-30T03:35:22.315Z,99.90
2022-08-30T03:37:49.628Z,99.90
2022-08-30T03:40:23.017Z,99.90
2022-08-30T03:42:50.691Z,99.90
2022-08-30T03:45:19.090Z,99.90
2022-08-30T03:47:46.654Z,99.90
2022-08-30T03:50:15.457Z,99.90
2022-08-30T03:52:42.532Z,99.90
2022-08-30T03:55:09.598Z,99.90
2022-08-30T03:57:36.675Z,99.90
2022-08-30T04:00:06.228Z,99.90
2022-08-30T04:02:33.295Z,99.90
2022-08-30T04:05:00.266Z,99.90
2022-08-30T04:07:27.137Z,99.90
2022-08-30T04:09:54.007Z,99.90
2022-08-30T04:12:22.895Z,99.90
2022-08-30T04:14:50.311Z,99.90
2022-08-30T04:17:17.192Z,99.90
2022-08-30T04:19:44.174Z,99.90
2022-08-30T04:22:11.259Z,99.90
2022-08-30T04:24:38.528Z,99.90
2022-08-30T04:27:05.540Z,99.90
2022-08-30T04:29:33.737Z,99.90
2022-08-30T04:32:01.549Z,99.90
2022-08-30T04:34:28.503Z,99.90
2022-08-30T04:36:55.585Z,99.90
2022-08-30T04:39:22.517Z,99.90
2022-08-30T04:41:49.523Z,99.90
2022-08-30T04:44:19.491Z,99.90
2022-08-30T04:46:47.109Z,99.90
2022-08-30T04:49:14.307Z,99.90
2022-08-30T04:51:41.505Z,99.90
2022-08-30T04:54:08.436Z,99.90
2022-08-30T04:56:35.632Z,99.90
2022-08-30T04:59:02.635Z,99.90
2022-08-30T05:01:32.380Z,99.90
2022-08-30T05:04:12.004Z,99.90
2022-08-30T05:06:38.973Z,99.90
2022-08-30T05:09:05.969Z,99.90
2022-08-30T05:11:33.366Z,99.90
2022-08-30T05:14:00.290Z,99.90
2022-08-30T05:16:27.553Z,99.90
2022-08-30T05:18:54.966Z,99.90
2022-08-30T05:21:26.599Z,99.90
2022-08-30T05:23:56.090Z,99.90
2022-08-30T05:26:26.038Z,99.90
2022-08-30T05:28:53.918Z,99.90
2022-08-30T05:31:25.356Z,99.90
2022-08-30T05:33:54.258Z,99.90
2022-08-30T05:36:24.057Z,99.90
2022-08-30T05:38:51.565Z,99.90
2022-08-30T05:41:26.366Z,99.90
2022-08-30T05:43:57.484Z,99.90
2022-08-30T05:46:25.325Z,99.90
2022-08-30T05:48:52.503Z,99.90
2022-08-30T05:51:21.951Z,99.90
2022-08-30T05:53:51.317Z,99.90
2022-08-30T05:56:21.373Z,99.90
2022-08-30T05:58:52.080Z,99.90
2022-08-30T06:01:31.893Z,99.90
2022-08-30T06:04:03.957Z,99.90
2022-08-30T06:06:34.228Z,99.90
2022-08-30T06:09:01.719Z,99.90
2022-08-30T06:11:33.150Z,99.90
2022-08-30T06:14:00.559Z,99.90
2022-08-30T06:16:28.499Z,99.90
2022-08-30T06:18:58.067Z,99.90
2022-08-30T06:21:31.685Z,99.90
2022-08-30T06:23:59.466Z,99.90
2022-08-30T06:26:27.933Z,99.90
2022-08-30T06:28:56.516Z,99.90
2022-08-30T06:31:25.189Z,99.90
2022-08-30T06:33:52.893Z,99.90
2022-08-30T06:36:22.612Z,99.90
2022-08-30T06:38:53.017Z,99.90
2022-08-30T06:41:23.137Z,99.90
2022-08-30T06:43:50.852Z,99.90
2022-08-30T06:46:21.508Z,99.90
2022-08-30T06:48:48.882Z,99.90
2022-08-30T06:51:19.916Z,99.90
2022-08-30T06:53:48.906Z,99.90
2022-08-30T06:56:16.944Z,99.90
2022-08-30T06:58:44.750Z,99.90
2022-08-30T07:01:14.611Z,99.90
2022-08-30T07:03:41.557Z,99.90
2022-08-30T07:06:09.172Z,99.90
2022-08-30T07:08:36.698Z,99.90
2022-08-30T07:11:05.605Z,99.90
2022-08-30T07:13:33.804Z,99.90
2022-08-30T07:16:00.966Z,99.90
2022-08-30T07:18:46.760Z,99.90
2022-08-30T07:21:15.663Z,99.90
2022-08-30T07:23:44.135Z,99.90
2022-08-30T07:26:15.673Z,99.90
2022-08-30T07:28:44.826Z,99.90
2022-08-30T07:31:13.541Z,99.90
2022-08-30T07:33:43.230Z,99.90
2022-08-30T07:36:11.237Z,99.90
2022-08-30T07:38:38.604Z,99.90
2022-08-30T07:41:06.729Z,99.90
2022-08-30T07:43:35.741Z,99.90
2022-08-30T07:46:04.763Z,99.90
2022-08-30T07:48:31.969Z,99.90
2022-08-30T07:51:05.141Z,99.90
2022-08-30T07:53:32.476Z,99.90
2022-08-30T07:55:59.360Z,99.90
2022-08-30T07:58:26.199Z,99.90
2022-08-30T08:00:53.302Z,99.90
2022-08-30T08:03:20.224Z,99.90
2022-08-30T08:05:47.288Z,99.90
2022-08-30T08:08:14.752Z,99.90
2022-08-30T08:10:43.195Z,99.90
2022-08-30T08:13:10.660Z,99.90
2022-08-30T08:15:38.630Z,99.90
2022-08-30T08:18:06.533Z,99.90
2022-08-30T08:20:34.817Z,99.90
2022-08-30T08:23:01.801Z,99.90
2022-08-30T08:25:29.148Z,99.90
2022-08-30T08:27:57.779Z,99.90
2022-08-30T08:30:24.845Z,99.90
2022-08-30T08:32:51.904Z,99.90
2022-08-30T08:35:18.818Z,99.90
2022-08-30T08:37:45.777Z,99.90
2022-08-30T08:40:18.712Z,99.90
2022-08-30T08:42:58.860Z,99.90
2022-08-30T08:45:50.593Z,99.90
2022-08-30T08:48:59.014Z,99.90
2022-08-30T08:51:49.283Z,99.90
2022-08-30T08:54:32.287Z,99.90
2022-08-30T08:57:00.021Z,99.90
2022-08-30T08:59:26.980Z,99.90
2022-08-30T09:01:58.390Z,99.90
2022-08-30T09:04:32.998Z,99.90
2022-08-30T09:07:03.752Z,99.90
2022-08-30T09:09:34.127Z,99.90
2022-08-30T09:12:01.646Z,99.90
2022-08-30T09:14:34.311Z,99.90
2022-08-30T09:17:16.025Z,99.90
2022-08-30T09:19:45.634Z,99.50
2022-08-30T09:22:26.739Z,99.80
2022-08-30T09:25:06.019Z,99.90
2022-08-30T09:27:47.878Z,99.90
2022-08-30T09:30:29.385Z,99.10
2022-08-30T09:33:04.153Z,98.80
2022-08-30T09:35:44.245Z,98.20
2022-08-30T09:38:32.968Z,98.20
2022-08-30T09:41:04.862Z,98.20
2022-08-30T09:43:34.223Z,97.80
2022-08-30T09:46:24.471Z,97.60
2022-08-30T09:48:51.522Z,97.00
2022-08-30T09:51:48.666Z,97.30
2022-08-30T09:54:38.598Z,96.60
2022-08-30T09:57:16.564Z,96.10
2022-08-30T10:00:00.568Z,96.10
2022-08-30T10:02:47.078Z,95.00
2022-08-30T10:05:46.445Z,94.80
2022-08-30T10:08:29.884Z,94.40
2022-08-30T10:11:07.834Z,94.60
2022-08-30T10:14:05.655Z,94.10
2022-08-30T10:16:38.300Z,92.90
2022-08-30T10:19:37.967Z,93.80
2022-08-30T10:22:19.550Z,92.80
2022-08-30T10:24:50.760Z,92.90
2022-08-30T10:27:28.886Z,91.30
2022-08-30T10:30:10.617Z,91.10
2022-08-30T10:33:22.927Z,91.40
2022-08-30T10:36:02.897Z,90.40
2022-08-30T10:38:40.544Z,90.30
2022-08-30T10:41:34.500Z,88.70
2022-08-30T10:44:13.341Z,89.10
2022-08-30T10:47:01.287Z,89.40
2022-08-30T10:49:36.309Z,90.10
2022-08-30T10:52:18.286Z,90.30
2022-08-30T10:55:02.850Z,90.00
2022-08-30T10:57:29.967Z,89.90
2022-08-30T11:00:05.736Z,89.50
2022-08-30T11:02:36.011Z,89.30
2022-08-30T11:05:34.625Z,89.70
2022-08-30T11:08:27.297Z,87.50
2022-08-30T11:11:38.325Z,89.30
2022-08-30T11:14:11.858Z,87.20
2022-08-30T11:16:45.399Z,87.70
2022-08-30T11:19:26.085Z,88.50
2022-08-30T11:22:08.180Z,88.40
2022-08-30T11:24:57.898Z,88.00
2022-08-30T11:30:36.575Z,87.60
2022-08-30T11:33:31.019Z,87.30
2022-08-30T11:35:57.894Z,86.80
2022-08-30T11:38:28.291Z,86.80
2022-08-30T11:40:55.119Z,86.90
2022-08-30T11:43:34.018Z,85.90
2022-08-30T11:46:28.793Z,86.70
2022-08-30T11:49:14.118Z,84.70
2022-08-30T11:52:28.310Z,82.30
2022-08-30T11:55:22.643Z,82.40
2022-08-30T11:58:05.052Z,82.10
2022-08-30T12:00:37.658Z,81.30
2022-08-30T12:03:31.374Z,83.10
2022-08-30T12:06:06.792Z,81.50
2022-08-30T12:08:34.230Z,80.30
2022-08-30T12:11:13.486Z,78.40
2022-08-30T12:13:43.226Z,78.20
2022-08-30T12:16:21.201Z,77.90
2022-08-30T12:19:04.600Z,77.40
2022-08-30T12:21:37.181Z,77.00
2022-08-30T12:24:32.609Z,77.70
2022-08-30T12:27:05.520Z,77.60
2022-08-30T12:29:33.397Z,74.90
2022-08-30T12:32:14.990Z,75.70
2022-08-30T12:34:42.311Z,75.70
2022-08-30T12:37:23.561Z,73.40
2022-08-30T12:40:03.960Z,73.50
2022-08-30T12:42:36.731Z,71.90
2022-08-30T12:45:11.201Z,71.90
2022-08-30T12:47:51.304Z,72.90
2022-08-30T12:50:24.956Z,72.10
2022-08-30T12:53:13.945Z,71.50
2022-08-30T12:56:13.194Z,71.20
2022-08-30T12:58:47.497Z,72.30
2022-08-30T13:01:31.354Z,71.60
2022-08-30T13:04:01.356Z,70.90
2022-08-30T13:06:44.122Z,70.00
2022-08-30T13:09:34.144Z,71.60
2022-08-30T13:12:03.902Z,72.80
2022-08-30T13:14:36.124Z,71.30
2022-08-30T13:17:23.738Z,72.70
2022-08-30T13:20:12.574Z,70.90
2022-08-30T13:23:01.658Z,70.90
2022-08-30T13:25:30.354Z,71.80
2022-08-30T13:28:02.186Z,71.10
2022-08-30T13:30:29.297Z,71.70
2022-08-30T13:32:56.268Z,70.60
2022-08-30T13:35:23.180Z,73.00
2022-08-30T13:37:51.339Z,72.70
2022-08-30T13:40:21.090Z,70.70
2022-08-30T13:42:48.613Z,72.90
2022-08-30T13:48:04.186Z,70.70
2022-08-30T13:50:31.307Z,73.20
2022-08-30T13:52:58.774Z,71.50
2022-08-30T13:55:25.691Z,70.10
2022-08-30T13:57:54.460Z,71.00
2022-08-30T14:00:23.776Z,73.20
2022-08-30T14:02:57.189Z,71.60
2022-08-30T14:11:19.018Z,73.20
2022-08-30T14:16:35.803Z,72.90
2022-08-30T14:19:03.385Z,73.70
2022-08-30T14:21:30.466Z,71.90
2022-08-30T14:23:58.880Z,73.10
2022-08-30T14:26:37.263Z,73.40
2022-08-30T14:29:09.398Z,73.10
2022-08-30T14:31:38.099Z,73.50
2022-08-30T14:34:05.727Z,73.10
2022-08-30T14:36:34.802Z,72.80
2022-08-30T14:39:08.217Z,73.90
2022-08-30T14:41:39.027Z,73.20
2022-08-30T14:44:10.526Z,75.00
2022-08-30T14:46:37.682Z,75.10
2022-08-30T14:49:04.617Z,73.60
2022-08-30T14:51:33.898Z,73.80
2022-08-30T14:54:00.881Z,74.20
2022-08-30T14:56:27.848Z,72.40
2022-08-30T14:59:00.426Z,72.30
2022-08-30T15:01:28.575Z,74.30
2022-08-30T15:03:56.178Z,72.70
2022-08-30T15:06:23.400Z,73.10
2022-08-30T15:08:54.902Z,72.50
2022-08-30T15:11:29.612Z,71.70
2022-08-30T15:13:56.694Z,73.30
2022-08-30T15:16:38.452Z,71.80
2022-08-30T15:19:07.552Z,71.80
2022-08-30T15:21:38.961Z,72.90
2022-08-30T15:24:09.483Z,72.40
2022-08-30T15:26:38.558Z,72.40
2022-08-30T15:29:05.576Z,74.00
2022-08-30T15:31:32.446Z,72.40
2022-08-30T15:34:00.271Z,73.20
2022-08-30T15:36:28.816Z,73.00
2022-08-30T15:38:55.986Z,72.50
2022-08-30T15:41:24.339Z,72.60
2022-08-30T15:43:52.833Z,71.50
2022-08-30T15:46:29.998Z,71.70
2022-08-30T15:49:04.699Z,71.40
2022-08-30T15:51:41.924Z,72.50
2022-08-30T15:54:14.618Z,71.90
2022-08-30T15:56:48.751Z,72.60
2022-08-30T15:59:15.920Z,71.90
2022-08-30T16:01:44.291Z,71.40
2022-08-30T16:04:11.702Z,72.20
2022-08-30T16:06:39.883Z,71.70
2022-08-30T16:09:10.006Z,72.30
2022-08-30T16:11:37.942Z,72.90
2022-08-30T16:14:06.212Z,73.20
2022-08-30T16:16:39.987Z,73.20
2022-08-30T16:19:08.814Z,73.10
2022-08-30T16:21:39.927Z,73.50
2022-08-30T16:24:10.535Z,73.60
2022-08-30T16:26:38.068Z,74.30
2022-08-30T16:29:07.196Z,75.00
2022-08-30T16:31:34.836Z,74.90
2022-08-30T16:34:04.142Z,74.40
2022-08-30T16:36:32.907Z,74.30
2022-08-30T16:38:59.829Z,74.50
2022-08-30T16:41:27.284Z,74.60
2022-08-30T16:43:54.695Z,74.10
2022-08-30T16:46:27.423Z,75.00
2022-08-30T16:48:57.129Z,75.40
2022-08-30T16:51:26.650Z,75.90
2022-08-30T16:53:56.360Z,76.20
2022-08-30T16:56:25.246Z,76.10
2022-08-30T16:59:01.114Z,75.80
2022-08-30T17:01:31.888Z,76.60
2022-08-30T17:03:59.573Z,77.80
2022-08-30T17:06:27.164Z,77.80
2022-08-30T17:08:56.050Z,78.20
2022-08-30T17:11:24.247Z,78.60
2022-08-30T17:13:51.789Z,78.70
2022-08-30T17:16:22.592Z,79.20
2022-08-30T17:18:59.774Z,78.50
2022-08-30T17:21:29.289Z,78.60
2022-08-30T17:24:01.371Z,79.00
2022-08-30T17:26:33.873Z,79.20
2022-08-30T17:29:01.022Z,79.50
2022-08-30T17:31:31.309Z,79.50
2022-08-30T17:34:02.778Z,79.50
2022-08-30T17:36:32.028Z,79.60
2022-08-30T17:38:58.830Z,80.40
2022-08-30T17:41:25.631Z,80.80
2022-08-30T17:43:52.441Z,81.40
2022-08-30T17:46:20.723Z,82.00
2022-08-30T17:48:47.935Z,82.80
2022-08-30T17:51:24.763Z,82.60
2022-08-30T17:53:51.549Z,83.10
2022-08-30T17:56:19.458Z,83.60
2022-08-30T17:58:47.510Z,84.20
2022-08-30T18:01:16.171Z,84.50
2022-08-30T18:03:45.607Z,84.70
2022-08-30T18:06:13.919Z,85.20
2022-08-30T18:08:41.059Z,85.30
2022-08-30T18:11:08.649Z,85.90
2022-08-30T18:13:36.092Z,86.30
2022-08-30T18:16:04.761Z,86.70
2022-08-30T18:18:32.409Z,87.10
2022-08-30T18:21:00.568Z,87.10
2022-08-30T18:23:27.966Z,87.70
2022-08-30T18:25:57.823Z,88.40
2022-08-30T18:28:24.948Z,88.30
2022-08-30T18:30:57.188Z,88.80
2022-08-30T18:33:28.599Z,88.90
2022-08-30T18:36:02.659Z,89.30
2022-08-30T18:38:29.656Z,89.50
2022-08-30T18:41:02.741Z,89.60
2022-08-30T18:43:30.581Z,89.90
2022-08-30T18:46:01.314Z,90.00
2022-08-30T18:48:28.165Z,90.20
2022-08-30T18:50:55.083Z,90.40
2022-08-30T18:53:28.617Z,90.60
2022-08-30T18:56:10.133Z,90.70
2022-08-30T18:58:40.253Z,90.80
2022-08-30T19:01:11.849Z,90.80
2022-08-30T19:03:54.660Z,91.00
2022-08-30T19:06:21.689Z,91.20
2022-08-30T19:08:49.131Z,91.30
2022-08-30T19:11:16.014Z,91.30
2022-08-30T19:13:43.601Z,91.50
2022-08-30T19:16:13.365Z,91.60
2022-08-30T19:18:43.415Z,91.70
2022-08-30T19:21:14.414Z,91.90
2022-08-30T19:23:42.052Z,92.00
2022-08-30T19:26:10.881Z,92.20
2022-08-30T19:28:38.571Z,92.20
2022-08-30T19:31:06.469Z,92.40
2022-08-30T19:33:37.270Z,92.40
2022-08-30T19:36:05.599Z,92.50
2022-08-30T19:38:35.355Z,92.70
2022-08-30T19:41:02.763Z,92.70
2022-08-30T19:43:30.612Z,92.80
2022-08-30T19:45:59.952Z,92.80
2022-08-30T19:48:32.037Z,92.90
2022-08-30T19:50:59.751Z,93.00
2022-08-30T19:53:26.768Z,93.20
2022-08-30T19:55:53.561Z,93.20
2022-08-30T19:58:26.134Z,93.30
2022-08-30T20:00:54.546Z,93.20
2022-08-30T20:03:38.047Z,93.70
2022-08-30T20:06:12.255Z,93.70
2022-08-30T20:08:39.329Z,93.90
2022-08-30T20:11:09.303Z,94.00
2022-08-30T20:13:38.431Z,93.90
2022-08-30T20:16:05.672Z,93.80
2022-08-30T20:18:32.746Z,94.00
2022-08-30T20:21:03.244Z,94.00
2022-08-30T20:23:35.673Z,94.00
2022-08-30T20:26:07.852Z,94.20
2022-08-30T20:28:34.770Z,94.40
2022-08-30T20:31:05.009Z,94.40
2022-08-30T20:33:37.754Z,94.30
2022-08-30T20:36:11.661Z,94.40
2022-08-30T20:38:41.875Z,94.00
2022-08-30T20:41:17.372Z,94.00
2022-08-30T20:43:49.005Z,94.00
2022-08-30T20:46:18.949Z,94.20
2022-08-30T20:48:46.649Z,94.20
2022-08-30T20:51:18.309Z,94.40
2022-08-30T20:53:46.273Z,94.60
2022-08-30T20:56:18.948Z,94.80
2022-08-30T20:58:47.673Z,94.90
2022-08-30T21:01:18.097Z,95.10
2022-08-30T21:03:48.983Z,95.10
2022-08-30T21:06:18.775Z,95.10
2022-08-30T21:08:47.558Z,95.10
2022-08-30T21:11:15.135Z,95.00
2022-08-30T21:13:47.111Z,95.00
2022-08-30T21:16:14.512Z,94.70
2022-08-30T21:18:45.939Z,94.60
2022-08-30T21:21:25.717Z,94.10
2022-08-30T21:23:54.814Z,94.50
2022-08-30T21:26:21.884Z,94.60
2022-08-30T21:28:56.144Z,94.50
2022-08-30T21:31:24.672Z,93.90
2022-08-30T21:33:53.623Z,93.30
2022-08-30T21:36:40.490Z,92.90
2022-08-30T21:39:09.631Z,92.80
2022-08-30T21:41:38.369Z,93.00
2022-08-30T21:44:14.782Z,93.50
2022-08-30T21:46:42.675Z,93.80
2022-08-30T21:49:12.452Z,94.00
2022-08-30T21:51:42.447Z,94.40
2022-08-30T21:54:11.194Z,94.60
2022-08-30T21:56:40.578Z,94.90
2022-08-30T21:59:08.812Z,95.00
2022-08-30T22:01:37.565Z,95.20
2022-08-30T22:04:07.263Z,95.20
2022-08-30T22:06:37.351Z,95.10
2022-08-30T22:09:06.834Z,94.90
2022-08-30T22:11:35.254Z,94.50
2022-08-30T22:14:03.528Z,94.40
2022-08-30T22:16:30.567Z,94.40
2022-08-30T22:18:57.740Z,94.50
2022-08-30T22:21:26.924Z,94.40
2022-08-30T22:23:53.797Z,94.60
2022-08-30T22:26:21.581Z,95.00
2022-08-30T22:28:48.908Z,94.80
2022-08-30T22:31:17.390Z,94.20
2022-08-30T22:33:45.155Z,94.30
2022-08-30T22:36:16.715Z,94.40
2022-08-30T22:38:43.595Z,94.20
2022-08-30T22:41:17.136Z,93.90
2022-08-30T22:43:44.846Z,93.80
2022-08-30T22:46:12.605Z,93.90
2022-08-30T22:48:42.519Z,94.00
2022-08-30T22:51:10.188Z,94.10
2022-08-30T22:53:37.483Z,94.40
2022-08-30T22:56:15.167Z,94.50
2022-08-30T22:58:42.342Z,94.80
2022-08-30T23:01:09.968Z,94.70
2022-08-30T23:03:37.143Z,94.60
2022-08-30T23:06:04.313Z,94.70
2022-08-30T23:08:31.135Z,94.80
2022-08-30T23:10:58.085Z,94.60
2022-08-30T23:13:26.264Z,94.70
2022-08-30T23:15:53.204Z,94.50
2022-08-30T23:18:20.137Z,94.60
2022-08-30T23:20:47.216Z,94.60
2022-08-30T23:23:32.602Z,94.70
2022-08-30T23:26:19.589Z,94.60
2022-08-30T23:29:05.181Z,94.80
2022-08-30T23:31:50.808Z,95.00
2022-08-30T23:34:36.433Z,95.10
2022-08-30T23:37:21.936Z,95.10
2022-08-30T23:40:07.488Z,95.10
2022-08-30T23:42:52.810Z,95.90
2022-08-30T23:45:38.365Z,96.30
2022-08-30T23:48:24.175Z,96.10
2022-08-30T23:51:09.465Z,96.70
2022-08-30T23:53:58.098Z,96.40
2022-08-30T23:56:43.658Z,96.60
2022-08-30T23:59:29.116Z,96.40
